East Lynne, Missouri
Current Conditions -  °F | °C
As of 2:53 AM on Wednesday 28 Jan 2015 (Local Time) from KLXT Reporting Station
Clear Clear  
Wind Chill: 35°   Ceiling: Unl
Heat Index: 41°   Visibility: 10mi
Dew Point: 29°   Wind: 10mph
Humidity: 62%   Direction: 130°SE
Pressure: 30"   Gusts: NA
Location:  38.67°N, 94.23°W
Report Text: KLXT 280853Z AUTO 13009KT 10SM CLR 05/M02 A3000 RMK AO2 SLP161 T00501017 58023
Loading
Personal Weather Stations






























Interactive Weather Map New forecast layout! Learn more

10-Day Weather Forecast

Advertisements
Track Severe Weather on mobile